sensor_id;sensor_type;location;lat;lon;timestamp;P1;durP1;ratioP1;P2;durP2;ratioP2
80199;SDS011;69520;44.900;-0.764;2023-09-12T00:00:10;11.32;;;4.40;;
80199;SDS011;69520;44.900;-0.764;2023-09-12T00:02:36;10.30;;;3.80;;
80199;SDS011;69520;44.900;-0.764;2023-09-12T00:05:02;10.00;;;3.97;;
80199;SDS011;69520;44.900;-0.764;2023-09-12T00:07:29;8.15;;;3.55;;
80199;SDS011;69520;44.900;-0.764;2023-09-12T00:09:56;7.80;;;3.42;;
80199;SDS011;69520;44.900;-0.764;2023-09-12T00:12:22;8.38;;;3.50;;
80199;SDS011;69520;44.900;-0.764;2023-09-12T00:14:49;8.37;;;3.60;;
80199;SDS011;69520;44.900;-0.764;2023-09-12T00:17:16;8.32;;;3.60;;
80199;SDS011;69520;44.900;-0.764;2023-09-12T00:19:42;8.05;;;3.90;;
80199;SDS011;69520;44.900;-0.764;2023-09-12T00:22:08;10.20;;;3.95;;
80199;SDS011;69520;44.900;-0.764;2023-09-12T00:24:34;10.20;;;4.00;;
80199;SDS011;69520;44.900;-0.764;2023-09-12T00:27:00;9.47;;;3.73;;
80199;SDS011;69520;44.900;-0.764;2023-09-12T00:29:26;8.23;;;3.95;;
80199;SDS011;69520;44.900;-0.764;2023-09-12T00:31:52;8.43;;;3.97;;
80199;SDS011;69520;44.900;-0.764;2023-09-12T00:34:18;8.13;;;3.70;;
80199;SDS011;69520;44.900;-0.764;2023-09-12T00:36:44;9.63;;;4.10;;
80199;SDS011;69520;44.900;-0.764;2023-09-12T00:39:10;8.57;;;4.10;;
80199;SDS011;69520;44.900;-0.764;2023-09-12T00:41:36;10.10;;;3.60;;
80199;SDS011;69520;44.900;-0.764;2023-09-12T00:44:02;9.25;;;4.00;;
80199;SDS011;69520;44.900;-0.764;2023-09-12T00:46:28;9.02;;;3.78;;
80199;SDS011;69520;44.900;-0.764;2023-09-12T00:48:55;8.25;;;3.53;;
80199;SDS011;69520;44.900;-0.764;2023-09-12T00:51:24;9.30;;;3.47;;
80199;SDS011;69520;44.900;-0.764;2023-09-12T00:53:51;9.00;;;3.50;;
80199;SDS011;69520;44.900;-0.764;2023-09-12T00:56:19;7.43;;;3.60;;
80199;SDS011;69520;44.900;-0.764;2023-09-12T00:58:45;9.23;;;3.40;;
80199;SDS011;69520;44.900;-0.764;2023-09-12T01:01:11;9.32;;;3.83;;
80199;SDS011;69520;44.900;-0.764;2023-09-12T01:03:37;8.63;;;3.63;;
80199;SDS011;69520;44.900;-0.764;2023-09-12T01:06:03;8.52;;;3.50;;
80199;SDS011;69520;44.900;-0.764;2023-09-12T01:08:30;8.18;;;3.90;;
80199;SDS011;69520;44.900;-0.764;2023-09-12T01:10:56;8.93;;;3.40;;
80199;SDS011;69520;44.900;-0.764;2023-09-12T01:13:24;8.18;;;3.55;;
80199;SDS011;69520;44.900;-0.764;2023-09-12T01:15:50;8.97;;;3.50;;
80199;SDS011;69520;44.900;-0.764;2023-09-12T01:18:16;6.70;;;3.20;;
80199;SDS011;69520;44.900;-0.764;2023-09-12T01:20:42;7.57;;;3.40;;
80199;SDS011;69520;44.900;-0.764;2023-09-12T01:23:21;7.65;;;3.33;;
80199;SDS011;69520;44.900;-0.764;2023-09-12T01:25:59;9.43;;;3.20;;
80199;SDS011;69520;44.900;-0.764;2023-09-12T01:28:28;7.00;;;3.30;;
80199;SDS011;69520;44.900;-0.764;2023-09-12T01:34:09;8.63;;;3.40;;
80199;SDS011;69520;44.900;-0.764;2023-09-12T01:36:35;8.68;;;3.50;;
80199;SDS011;69520;44.900;-0.764;2023-09-12T01:39:01;8.32;;;3.30;;
80199;SDS011;69520;44.900;-0.764;2023-09-12T01:41:29;8.73;;;3.23;;
80199;SDS011;69520;44.900;-0.764;2023-09-12T01:43:56;7.70;;;3.20;;
80199;SDS011;69520;44.900;-0.764;2023-09-12T01:46:23;8.13;;;3.70;;
80199;SDS011;69520;44.900;-0.764;2023-09-12T01:48:50;9.88;;;3.83;;
80199;SDS011;69520;44.900;-0.764;2023-09-12T01:51:18;10.10;;;3.90;;
80199;SDS011;69520;44.900;-0.764;2023-09-12T01:53:44;8.47;;;4.33;;
80199;SDS011;69520;44.900;-0.764;2023-09-12T01:56:11;7.97;;;4.13;;
80199;SDS011;69520;44.900;-0.764;2023-09-12T01:58:38;9.13;;;4.40;;
80199;SDS011;69520;44.900;-0.764;2023-09-12T02:01:04;8.50;;;4.30;;
80199;SDS011;69520;44.900;-0.764;2023-09-12T02:03:30;9.48;;;4.50;;
80199;SDS011;69520;44.900;-0.764;2023-09-12T02:05:56;9.43;;;4.50;;
80199;SDS011;69520;44.900;-0.764;2023-09-12T02:08:22;8.73;;;4.30;;
80199;SDS011;69520;44.900;-0.764;2023-09-12T02:10:48;8.15;;;3.95;;
80199;SDS011;69520;44.900;-0.764;2023-09-12T02:13:14;9.95;;;4.00;;
80199;SDS011;69520;44.900;-0.764;2023-09-12T02:15:40;9.77;;;4.40;;
80199;SDS011;69520;44.900;-0.764;2023-09-12T02:18:06;8.90;;;4.10;;
80199;SDS011;69520;44.900;-0.764;2023-09-12T02:20:32;11.52;;;4.50;;
80199;SDS011;69520;44.900;-0.764;2023-09-12T02:22:58;9.93;;;4.25;;
80199;SDS011;69520;44.900;-0.764;2023-09-12T02:25:24;10.82;;;4.55;;
80199;SDS011;69520;44.900;-0.764;2023-09-12T02:27:50;8.95;;;4.18;;
80199;SDS011;69520;44.900;-0.764;2023-09-12T02:30:16;10.77;;;6.50;;
80199;SDS011;69520;44.900;-0.764;2023-09-12T02:32:42;10.82;;;4.63;;
80199;SDS011;69520;44.900;-0.764;2023-09-12T02:35:08;9.60;;;4.55;;
80199;SDS011;69520;44.900;-0.764;2023-09-12T02:37:34;10.95;;;4.35;;
80199;SDS011;69520;44.900;-0.764;2023-09-12T02:40:00;9.40;;;4.40;;
80199;SDS011;69520;44.900;-0.764;2023-09-12T02:42:26;7.63;;;4.23;;
80199;SDS011;69520;44.900;-0.764;2023-09-12T02:44:52;8.60;;;4.55;;
80199;SDS011;69520;44.900;-0.764;2023-09-12T02:47:18;9.75;;;4.95;;
80199;SDS011;69520;44.900;-0.764;2023-09-12T02:49:44;9.55;;;4.97;;
80199;SDS011;69520;44.900;-0.764;2023-09-12T02:52:10;11.55;;;5.30;;
80199;SDS011;69520;44.900;-0.764;2023-09-12T02:54:36;9.30;;;4.70;;
80199;SDS011;69520;44.900;-0.764;2023-09-12T02:57:02;9.55;;;5.07;;
80199;SDS011;69520;44.900;-0.764;2023-09-12T02:59:29;9.70;;;5.00;;
80199;SDS011;69520;44.900;-0.764;2023-09-12T03:01:55;11.77;;;5.10;;
80199;SDS011;69520;44.900;-0.764;2023-09-12T03:04:22;11.50;;;5.50;;
80199;SDS011;69520;44.900;-0.764;2023-09-12T03:06:48;9.77;;;4.90;;
80199;SDS011;69520;44.900;-0.764;2023-09-12T03:09:14;8.85;;;4.85;;
80199;SDS011;69520;44.900;-0.764;2023-09-12T03:11:42;9.80;;;4.95;;
80199;SDS011;69520;44.900;-0.764;2023-09-12T03:14:08;11.10;;;4.82;;
80199;SDS011;69520;44.900;-0.764;2023-09-12T03:16:34;9.68;;;5.00;;
80199;SDS011;69520;44.900;-0.764;2023-09-12T03:19:01;9.80;;;5.20;;
80199;SDS011;69520;44.900;-0.764;2023-09-12T03:21:28;9.60;;;4.65;;
80199;SDS011;69520;44.900;-0.764;2023-09-12T03:23:54;9.55;;;5.10;;
80199;SDS011;69520;44.900;-0.764;2023-09-12T03:26:20;9.15;;;5.00;;
80199;SDS011;69520;44.900;-0.764;2023-09-12T03:28:45;10.95;;;5.40;;
80199;SDS011;69520;44.900;-0.764;2023-09-12T03:31:13;10.30;;;5.50;;
80199;SDS011;69520;44.900;-0.764;2023-09-12T03:33:40;10.75;;;4.90;;
80199;SDS011;69520;44.900;-0.764;2023-09-12T03:36:07;10.63;;;5.50;;
80199;SDS011;69520;44.900;-0.764;2023-09-12T03:38:34;10.80;;;5.10;;
80199;SDS011;69520;44.900;-0.764;2023-09-12T03:41:00;10.88;;;5.38;;
80199;SDS011;69520;44.900;-0.764;2023-09-12T03:43:26;10.27;;;5.20;;
80199;SDS011;69520;44.900;-0.764;2023-09-12T03:45:52;10.10;;;5.20;;
80199;SDS011;69520;44.900;-0.764;2023-09-12T03:48:19;12.40;;;5.82;;
80199;SDS011;69520;44.900;-0.764;2023-09-12T03:50:45;9.40;;;5.18;;
80199;SDS011;69520;44.900;-0.764;2023-09-12T03:53:11;11.73;;;5.28;;
80199;SDS011;69520;44.900;-0.764;2023-09-12T03:55:37;10.43;;;5.23;;
80199;SDS011;69520;44.900;-0.764;2023-09-12T03:58:03;9.85;;;5.35;;
80199;SDS011;69520;44.900;-0.764;2023-09-12T04:00:29;10.65;;;5.60;;
80199;SDS011;69520;44.900;-0.764;2023-09-12T04:02:56;10.15;;;5.50;;
80199;SDS011;69520;44.900;-0.764;2023-09-12T04:05:22;10.52;;;6.07;;
80199;SDS011;69520;44.900;-0.764;2023-09-12T04:07:48;10.13;;;5.13;;
80199;SDS011;69520;44.900;-0.764;2023-09-12T04:10:14;10.40;;;5.70;;
80199;SDS011;69520;44.900;-0.764;2023-09-12T04:12:40;10.73;;;5.43;;
80199;SDS011;69520;44.900;-0.764;2023-09-12T04:15:06;10.13;;;5.00;;
80199;SDS011;69520;44.900;-0.764;2023-09-12T04:17:32;9.85;;;5.03;;
80199;SDS011;69520;44.900;-0.764;2023-09-12T04:19:58;9.57;;;5.73;;
80199;SDS011;69520;44.900;-0.764;2023-09-12T04:22:24;10.50;;;5.57;;
80199;SDS011;69520;44.900;-0.764;2023-09-12T04:24:50;10.57;;;5.25;;
80199;SDS011;69520;44.900;-0.764;2023-09-12T04:27:16;10.90;;;5.68;;
80199;SDS011;69520;44.900;-0.764;2023-09-12T04:29:42;10.85;;;5.63;;
80199;SDS011;69520;44.900;-0.764;2023-09-12T04:32:08;13.27;;;6.53;;
80199;SDS011;69520;44.900;-0.764;2023-09-12T04:34:34;11.48;;;6.07;;
80199;SDS011;69520;44.900;-0.764;2023-09-12T04:37:00;11.25;;;6.25;;
80199;SDS011;69520;44.900;-0.764;2023-09-12T04:39:27;10.65;;;5.97;;
80199;SDS011;69520;44.900;-0.764;2023-09-12T04:41:53;10.25;;;6.05;;
80199;SDS011;69520;44.900;-0.764;2023-09-12T04:44:19;14.03;;;6.73;;
80199;SDS011;69520;44.900;-0.764;2023-09-12T04:46:45;12.50;;;6.90;;
80199;SDS011;69520;44.900;-0.764;2023-09-12T04:49:11;11.50;;;6.30;;
80199;SDS011;69520;44.900;-0.764;2023-09-12T04:51:37;10.18;;;6.20;;
80199;SDS011;69520;44.900;-0.764;2023-09-12T04:54:04;11.68;;;6.00;;
80199;SDS011;69520;44.900;-0.764;2023-09-12T04:56:30;11.00;;;6.27;;
80199;SDS011;69520;44.900;-0.764;2023-09-12T04:58:56;12.95;;;6.00;;
80199;SDS011;69520;44.900;-0.764;2023-09-12T05:01:22;11.80;;;6.05;;
80199;SDS011;69520;44.900;-0.764;2023-09-12T05:03:48;9.95;;;5.90;;
80199;SDS011;69520;44.900;-0.764;2023-09-12T05:06:14;11.77;;;5.78;;
80199;SDS011;69520;44.900;-0.764;2023-09-12T05:08:40;9.50;;;5.40;;
80199;SDS011;69520;44.900;-0.764;2023-09-12T05:11:06;10.13;;;5.97;;
80199;SDS011;69520;44.900;-0.764;2023-09-12T05:13:32;11.02;;;5.38;;
80199;SDS011;69520;44.900;-0.764;2023-09-12T05:15:58;11.23;;;5.97;;
80199;SDS011;69520;44.900;-0.764;2023-09-12T05:18:24;10.45;;;5.72;;
80199;SDS011;69520;44.900;-0.764;2023-09-12T05:20:50;12.80;;;5.97;;
80199;SDS011;69520;44.900;-0.764;2023-09-12T05:23:16;10.43;;;6.03;;
80199;SDS011;69520;44.900;-0.764;2023-09-12T05:25:42;11.10;;;5.97;;
80199;SDS011;69520;44.900;-0.764;2023-09-12T05:28:08;9.82;;;5.50;;
80199;SDS011;69520;44.900;-0.764;2023-09-12T05:30:34;11.73;;;6.03;;
80199;SDS011;69520;44.900;-0.764;2023-09-12T05:33:00;12.53;;;6.17;;
80199;SDS011;69520;44.900;-0.764;2023-09-12T05:35:26;11.20;;;6.30;;
80199;SDS011;69520;44.900;-0.764;2023-09-12T05:37:52;9.95;;;5.80;;
80199;SDS011;69520;44.900;-0.764;2023-09-12T05:40:18;11.57;;;6.28;;
80199;SDS011;69520;44.900;-0.764;2023-09-12T05:42:44;13.13;;;6.00;;
80199;SDS011;69520;44.900;-0.764;2023-09-12T05:45:10;10.77;;;6.20;;
80199;SDS011;69520;44.900;-0.764;2023-09-12T05:47:36;11.18;;;6.30;;
80199;SDS011;69520;44.900;-0.764;2023-09-12T05:50:02;11.05;;;5.75;;
80199;SDS011;69520;44.900;-0.764;2023-09-12T05:52:32;11.90;;;5.63;;
80199;SDS011;69520;44.900;-0.764;2023-09-12T05:54:58;10.30;;;6.45;;
80199;SDS011;69520;44.900;-0.764;2023-09-12T05:57:24;10.20;;;5.50;;
80199;SDS011;69520;44.900;-0.764;2023-09-12T05:59:50;10.88;;;6.05;;
80199;SDS011;69520;44.900;-0.764;2023-09-12T06:02:16;12.68;;;6.25;;
80199;SDS011;69520;44.900;-0.764;2023-09-12T06:04:42;12.23;;;6.65;;
80199;SDS011;69520;44.900;-0.764;2023-09-12T06:07:08;11.88;;;6.53;;
80199;SDS011;69520;44.900;-0.764;2023-09-12T06:09:35;11.03;;;6.10;;
80199;SDS011;69520;44.900;-0.764;2023-09-12T06:12:01;12.20;;;6.60;;
80199;SDS011;69520;44.900;-0.764;2023-09-12T06:14:27;12.50;;;6.65;;
80199;SDS011;69520;44.900;-0.764;2023-09-12T06:16:53;13.25;;;6.70;;
80199;SDS011;69520;44.900;-0.764;2023-09-12T06:19:19;11.20;;;6.32;;
80199;SDS011;69520;44.900;-0.764;2023-09-12T06:21:45;10.90;;;6.17;;
80199;SDS011;69520;44.900;-0.764;2023-09-12T06:24:12;10.38;;;5.95;;
80199;SDS011;69520;44.900;-0.764;2023-09-12T06:26:39;11.82;;;6.50;;
80199;SDS011;69520;44.900;-0.764;2023-09-12T06:29:05;11.00;;;6.40;;
80199;SDS011;69520;44.900;-0.764;2023-09-12T06:31:31;10.48;;;6.07;;
80199;SDS011;69520;44.900;-0.764;2023-09-12T06:33:57;13.93;;;7.30;;
80199;SDS011;69520;44.900;-0.764;2023-09-12T06:36:26;11.50;;;6.50;;
80199;SDS011;69520;44.900;-0.764;2023-09-12T06:38:54;12.15;;;6.78;;
80199;SDS011;69520;44.900;-0.764;2023-09-12T06:41:20;11.73;;;6.97;;
80199;SDS011;69520;44.900;-0.764;2023-09-12T06:43:46;10.75;;;6.65;;
80199;SDS011;69520;44.900;-0.764;2023-09-12T06:46:12;12.27;;;7.13;;
80199;SDS011;69520;44.900;-0.764;2023-09-12T06:48:38;12.55;;;6.65;;
80199;SDS011;69520;44.900;-0.764;2023-09-12T06:51:05;12.95;;;6.93;;
80199;SDS011;69520;44.900;-0.764;2023-09-12T06:53:31;11.27;;;6.40;;
80199;SDS011;69520;44.900;-0.764;2023-09-12T06:55:57;11.48;;;6.60;;
80199;SDS011;69520;44.900;-0.764;2023-09-12T06:58:24;15.57;;;7.17;;
80199;SDS011;69520;44.900;-0.764;2023-09-12T07:00:50;11.70;;;6.50;;
80199;SDS011;69520;44.900;-0.764;2023-09-12T07:03:16;10.73;;;6.47;;
80199;SDS011;69520;44.900;-0.764;2023-09-12T07:05:42;11.15;;;6.68;;
80199;SDS011;69520;44.900;-0.764;2023-09-12T07:08:08;13.05;;;6.43;;
80199;SDS011;69520;44.900;-0.764;2023-09-12T07:10:34;12.23;;;6.60;;
80199;SDS011;69520;44.900;-0.764;2023-09-12T07:13:01;11.95;;;6.75;;
80199;SDS011;69520;44.900;-0.764;2023-09-12T07:15:27;11.57;;;6.45;;
80199;SDS011;69520;44.900;-0.764;2023-09-12T07:17:53;11.15;;;6.70;;
80199;SDS011;69520;44.900;-0.764;2023-09-12T07:20:21;12.55;;;7.07;;
80199;SDS011;69520;44.900;-0.764;2023-09-12T07:22:47;10.87;;;6.83;;
80199;SDS011;69520;44.900;-0.764;2023-09-12T07:25:13;13.40;;;7.50;;
80199;SDS011;69520;44.900;-0.764;2023-09-12T07:27:39;12.93;;;7.22;;
80199;SDS011;69520;44.900;-0.764;2023-09-12T07:30:06;12.38;;;7.50;;
80199;SDS011;69520;44.900;-0.764;2023-09-12T07:32:32;14.25;;;7.72;;
80199;SDS011;69520;44.900;-0.764;2023-09-12T07:34:58;13.03;;;7.83;;
80199;SDS011;69520;44.900;-0.764;2023-09-12T07:37:24;12.85;;;7.15;;
80199;SDS011;69520;44.900;-0.764;2023-09-12T07:39:50;14.60;;;8.57;;
80199;SDS011;69520;44.900;-0.764;2023-09-12T07:42:16;15.00;;;9.43;;
80199;SDS011;69520;44.900;-0.764;2023-09-12T07:44:46;14.68;;;8.20;;
80199;SDS011;69520;44.900;-0.764;2023-09-12T07:47:12;13.80;;;8.03;;
80199;SDS011;69520;44.900;-0.764;2023-09-12T07:49:39;12.75;;;7.63;;
80199;SDS011;69520;44.900;-0.764;2023-09-12T07:52:05;13.93;;;8.27;;
80199;SDS011;69520;44.900;-0.764;2023-09-12T07:54:31;14.05;;;8.07;;
80199;SDS011;69520;44.900;-0.764;2023-09-12T07:56:57;12.13;;;7.55;;
80199;SDS011;69520;44.900;-0.764;2023-09-12T07:59:24;12.03;;;7.83;;
80199;SDS011;69520;44.900;-0.764;2023-09-12T08:01:50;16.90;;;8.43;;
80199;SDS011;69520;44.900;-0.764;2023-09-12T08:04:16;15.18;;;7.90;;
80199;SDS011;69520;44.900;-0.764;2023-09-12T08:06:42;11.93;;;6.60;;
80199;SDS011;69520;44.900;-0.764;2023-09-12T08:09:09;11.13;;;5.10;;
80199;SDS011;69520;44.900;-0.764;2023-09-12T08:11:35;10.43;;;4.33;;
80199;SDS011;69520;44.900;-0.764;2023-09-12T08:14:01;9.93;;;4.10;;
80199;SDS011;69520;44.900;-0.764;2023-09-12T08:16:27;9.55;;;3.80;;
80199;SDS011;69520;44.900;-0.764;2023-09-12T08:18:53;8.05;;;3.40;;
80199;SDS011;69520;44.900;-0.764;2023-09-12T08:21:19;9.80;;;3.92;;
80199;SDS011;69520;44.900;-0.764;2023-09-12T08:23:45;7.77;;;3.70;;
80199;SDS011;69520;44.900;-0.764;2023-09-12T08:26:11;8.63;;;3.60;;
80199;SDS011;69520;44.900;-0.764;2023-09-12T08:28:37;8.98;;;3.90;;
80199;SDS011;69520;44.900;-0.764;2023-09-12T08:31:03;7.82;;;2.95;;
80199;SDS011;69520;44.900;-0.764;2023-09-12T08:33:30;6.40;;;2.80;;
80199;SDS011;69520;44.900;-0.764;2023-09-12T08:35:56;7.80;;;2.77;;
80199;SDS011;69520;44.900;-0.764;2023-09-12T08:38:22;6.00;;;2.40;;
80199;SDS011;69520;44.900;-0.764;2023-09-12T08:40:50;6.85;;;2.42;;
80199;SDS011;69520;44.900;-0.764;2023-09-12T08:43:17;5.55;;;2.05;;
80199;SDS011;69520;44.900;-0.764;2023-09-12T08:45:43;5.95;;;2.08;;
80199;SDS011;69520;44.900;-0.764;2023-09-12T08:48:09;6.33;;;2.07;;
80199;SDS011;69520;44.900;-0.764;2023-09-12T08:50:37;6.75;;;2.08;;
80199;SDS011;69520;44.900;-0.764;2023-09-12T08:53:03;6.72;;;2.10;;
80199;SDS011;69520;44.900;-0.764;2023-09-12T08:55:30;7.45;;;2.53;;
80199;SDS011;69520;44.900;-0.764;2023-09-12T08:58:03;6.00;;;2.03;;
80199;SDS011;69520;44.900;-0.764;2023-09-12T09:00:29;8.43;;;3.17;;
80199;SDS011;69520;44.900;-0.764;2023-09-12T09:02:55;7.55;;;3.10;;
80199;SDS011;69520;44.900;-0.764;2023-09-12T09:05:21;7.30;;;3.05;;
80199;SDS011;69520;44.900;-0.764;2023-09-12T09:07:48;7.88;;;3.08;;
80199;SDS011;69520;44.900;-0.764;2023-09-12T09:10:14;6.68;;;2.97;;
80199;SDS011;69520;44.900;-0.764;2023-09-12T09:12:42;7.17;;;2.97;;
80199;SDS011;69520;44.900;-0.764;2023-09-12T09:15:25;6.45;;;2.72;;
80199;SDS011;69520;44.900;-0.764;2023-09-12T09:17:52;6.47;;;3.00;;
80199;SDS011;69520;44.900;-0.764;2023-09-12T09:20:36;6.82;;;2.65;;
80199;SDS011;69520;44.900;-0.764;2023-09-12T09:25:30;6.27;;;2.50;;
80199;SDS011;69520;44.900;-0.764;2023-09-12T09:27:56;6.18;;;2.33;;
80199;SDS011;69520;44.900;-0.764;2023-09-12T09:33:07;7.30;;;3.10;;
80199;SDS011;69520;44.900;-0.764;2023-09-12T09:35:34;6.15;;;2.80;;
80199;SDS011;69520;44.900;-0.764;2023-09-12T09:38:00;7.53;;;2.80;;
80199;SDS011;69520;44.900;-0.764;2023-09-12T09:40:26;6.57;;;2.95;;
80199;SDS011;69520;44.900;-0.764;2023-09-12T09:42:56;8.10;;;3.45;;
80199;SDS011;69520;44.900;-0.764;2023-09-12T09:45:22;7.43;;;3.00;;
80199;SDS011;69520;44.900;-0.764;2023-09-12T09:47:49;7.35;;;3.50;;
80199;SDS011;69520;44.900;-0.764;2023-09-12T09:50:18;7.10;;;3.17;;
80199;SDS011;69520;44.900;-0.764;2023-09-12T09:52:44;7.32;;;3.25;;
80199;SDS011;69520;44.900;-0.764;2023-09-12T09:55:13;7.85;;;3.60;;
80199;SDS011;69520;44.900;-0.764;2023-09-12T09:57:40;8.40;;;3.53;;
80199;SDS011;69520;44.900;-0.764;2023-09-12T10:00:06;11.32;;;4.07;;
80199;SDS011;69520;44.900;-0.764;2023-09-12T10:02:36;9.80;;;4.10;;
80199;SDS011;69520;44.900;-0.764;2023-09-12T10:05:04;8.80;;;4.32;;
80199;SDS011;69520;44.900;-0.764;2023-09-12T10:07:32;8.23;;;4.03;;
80199;SDS011;69520;44.900;-0.764;2023-09-12T10:10:00;7.95;;;3.72;;
80199;SDS011;69520;44.900;-0.764;2023-09-12T10:12:27;9.02;;;4.00;;
80199;SDS011;69520;44.900;-0.764;2023-09-12T10:14:56;8.80;;;4.10;;
80199;SDS011;69520;44.900;-0.764;2023-09-12T10:17:22;9.95;;;3.70;;
80199;SDS011;69520;44.900;-0.764;2023-09-12T10:19:54;9.57;;;4.32;;
80199;SDS011;69520;44.900;-0.764;2023-09-12T10:22:24;9.32;;;4.35;;
80199;SDS011;69520;44.900;-0.764;2023-09-12T10:24:51;8.82;;;4.55;;
80199;SDS011;69520;44.900;-0.764;2023-09-12T10:27:18;9.23;;;5.00;;
80199;SDS011;69520;44.900;-0.764;2023-09-12T10:29:45;9.57;;;4.97;;
80199;SDS011;69520;44.900;-0.764;2023-09-12T10:32:12;8.73;;;5.38;;
80199;SDS011;69520;44.900;-0.764;2023-09-12T10:34:40;9.82;;;5.35;;
80199;SDS011;69520;44.900;-0.764;2023-09-12T10:37:10;9.20;;;5.60;;
80199;SDS011;69520;44.900;-0.764;2023-09-12T10:39:38;10.07;;;5.27;;
80199;SDS011;69520;44.900;-0.764;2023-09-12T10:42:04;9.82;;;5.00;;
80199;SDS011;69520;44.900;-0.764;2023-09-12T10:44:31;12.90;;;5.65;;
80199;SDS011;69520;44.900;-0.764;2023-09-12T10:46:57;10.18;;;5.30;;
80199;SDS011;69520;44.900;-0.764;2023-09-12T10:49:24;10.55;;;4.97;;
80199;SDS011;69520;44.900;-0.764;2023-09-12T10:51:51;12.70;;;5.53;;
80199;SDS011;69520;44.900;-0.764;2023-09-12T10:54:35;11.02;;;5.18;;
80199;SDS011;69520;44.900;-0.764;2023-09-12T10:57:06;11.30;;;4.90;;
80199;SDS011;69520;44.900;-0.764;2023-09-12T10:59:32;10.52;;;5.30;;
80199;SDS011;69520;44.900;-0.764;2023-09-12T11:04:46;10.20;;;5.20;;
80199;SDS011;69520;44.900;-0.764;2023-09-12T11:07:31;11.70;;;5.30;;
80199;SDS011;69520;44.900;-0.764;2023-09-12T11:12:43;9.90;;;4.80;;
80199;SDS011;69520;44.900;-0.764;2023-09-12T11:15:09;11.43;;;5.35;;
80199;SDS011;69520;44.900;-0.764;2023-09-12T11:17:39;9.37;;;4.20;;
80199;SDS011;69520;44.900;-0.764;2023-09-12T11:20:05;10.02;;;4.53;;
80199;SDS011;69520;44.900;-0.764;2023-09-12T11:22:41;9.23;;;4.03;;
80199;SDS011;69520;44.900;-0.764;2023-09-12T11:30:23;9.30;;;4.77;;
80199;SDS011;69520;44.900;-0.764;2023-09-12T11:32:50;9.63;;;4.07;;
80199;SDS011;69520;44.900;-0.764;2023-09-12T11:35:24;10.13;;;4.35;;
80199;SDS011;69520;44.900;-0.764;2023-09-12T11:37:51;10.85;;;4.05;;
80199;SDS011;69520;44.900;-0.764;2023-09-12T11:40:19;7.25;;;3.63;;
80199;SDS011;69520;44.900;-0.764;2023-09-12T11:42:48;8.83;;;3.80;;
80199;SDS011;69520;44.900;-0.764;2023-09-12T11:45:20;7.47;;;3.30;;
80199;SDS011;69520;44.900;-0.764;2023-09-12T11:47:47;8.55;;;3.38;;
80199;SDS011;69520;44.900;-0.764;2023-09-12T11:52:58;8.02;;;3.00;;
80199;SDS011;69520;44.900;-0.764;2023-09-12T11:55:24;9.03;;;3.40;;
80199;SDS011;69520;44.900;-0.764;2023-09-12T11:57:51;8.27;;;3.10;;
80199;SDS011;69520;44.900;-0.764;2023-09-12T12:00:17;8.30;;;2.85;;
80199;SDS011;69520;44.900;-0.764;2023-09-12T12:02:45;8.15;;;2.50;;
80199;SDS011;69520;44.900;-0.764;2023-09-12T12:05:11;6.78;;;2.80;;
80199;SDS011;69520;44.900;-0.764;2023-09-12T12:07:37;8.57;;;2.53;;
80199;SDS011;69520;44.900;-0.764;2023-09-12T12:10:04;8.40;;;2.70;;
80199;SDS011;69520;44.900;-0.764;2023-09-12T12:12:30;8.82;;;3.25;;
80199;SDS011;69520;44.900;-0.764;2023-09-12T12:14:56;7.28;;;2.75;;
80199;SDS011;69520;44.900;-0.764;2023-09-12T12:17:23;8.20;;;2.67;;
80199;SDS011;69520;44.900;-0.764;2023-09-12T12:19:49;7.33;;;2.40;;
80199;SDS011;69520;44.900;-0.764;2023-09-12T12:22:15;6.72;;;2.88;;
80199;SDS011;69520;44.900;-0.764;2023-09-12T12:24:43;8.70;;;2.85;;
80199;SDS011;69520;44.900;-0.764;2023-09-12T12:27:09;6.47;;;2.42;;
80199;SDS011;69520;44.900;-0.764;2023-09-12T12:29:36;9.48;;;2.90;;
80199;SDS011;69520;44.900;-0.764;2023-09-12T12:32:04;8.07;;;2.40;;
80199;SDS011;69520;44.900;-0.764;2023-09-12T12:34:31;10.60;;;2.95;;
80199;SDS011;69520;44.900;-0.764;2023-09-12T12:36:57;9.00;;;2.90;;
80199;SDS011;69520;44.900;-0.764;2023-09-12T12:39:23;8.02;;;2.83;;
80199;SDS011;69520;44.900;-0.764;2023-09-12T12:41:53;6.85;;;2.90;;
80199;SDS011;69520;44.900;-0.764;2023-09-12T12:44:19;6.67;;;2.30;;
80199;SDS011;69520;44.900;-0.764;2023-09-12T12:46:52;9.43;;;2.50;;
80199;SDS011;69520;44.900;-0.764;2023-09-12T12:49:18;6.97;;;2.60;;
80199;SDS011;69520;44.900;-0.764;2023-09-12T12:51:45;6.53;;;2.30;;
80199;SDS011;69520;44.900;-0.764;2023-09-12T12:54:11;7.82;;;2.70;;
80199;SDS011;69520;44.900;-0.764;2023-09-12T12:56:37;7.07;;;2.40;;
80199;SDS011;69520;44.900;-0.764;2023-09-12T12:59:04;7.03;;;2.60;;
80199;SDS011;69520;44.900;-0.764;2023-09-12T13:01:33;8.07;;;2.78;;
80199;SDS011;69520;44.900;-0.764;2023-09-12T13:03:59;8.85;;;2.97;;
80199;SDS011;69520;44.900;-0.764;2023-09-12T13:06:25;7.20;;;3.00;;
80199;SDS011;69520;44.900;-0.764;2023-09-12T13:08:53;7.30;;;2.60;;
80199;SDS011;69520;44.900;-0.764;2023-09-12T13:11:19;7.55;;;2.70;;
80199;SDS011;69520;44.900;-0.764;2023-09-12T13:13:47;9.60;;;2.83;;
80199;SDS011;69520;44.900;-0.764;2023-09-12T13:16:16;6.95;;;2.55;;
80199;SDS011;69520;44.900;-0.764;2023-09-12T13:18:42;8.55;;;2.78;;
80199;SDS011;69520;44.900;-0.764;2023-09-12T13:21:08;7.03;;;2.70;;
80199;SDS011;69520;44.900;-0.764;2023-09-12T13:23:35;7.35;;;2.55;;
80199;SDS011;69520;44.900;-0.764;2023-09-12T13:26:01;5.30;;;2.40;;
80199;SDS011;69520;44.900;-0.764;2023-09-12T13:28:28;7.13;;;2.65;;
80199;SDS011;69520;44.900;-0.764;2023-09-12T13:30:54;8.43;;;2.72;;
80199;SDS011;69520;44.900;-0.764;2023-09-12T13:33:20;8.20;;;2.47;;
80199;SDS011;69520;44.900;-0.764;2023-09-12T13:35:47;6.40;;;2.63;;
80199;SDS011;69520;44.900;-0.764;2023-09-12T13:38:14;7.45;;;2.78;;
80199;SDS011;69520;44.900;-0.764;2023-09-12T13:40:42;7.45;;;2.83;;
80199;SDS011;69520;44.900;-0.764;2023-09-12T13:43:08;8.77;;;2.80;;
80199;SDS011;69520;44.900;-0.764;2023-09-12T13:45:34;8.97;;;3.10;;
80199;SDS011;69520;44.900;-0.764;2023-09-12T13:48:01;9.00;;;2.65;;
80199;SDS011;69520;44.900;-0.764;2023-09-12T13:50:27;9.57;;;3.20;;
80199;SDS011;69520;44.900;-0.764;2023-09-12T13:52:54;8.82;;;3.05;;
80199;SDS011;69520;44.900;-0.764;2023-09-12T13:55:24;7.47;;;2.80;;
80199;SDS011;69520;44.900;-0.764;2023-09-12T13:57:50;7.50;;;2.90;;
80199;SDS011;69520;44.900;-0.764;2023-09-12T14:00:16;7.45;;;2.70;;
80199;SDS011;69520;44.900;-0.764;2023-09-12T14:02:42;6.80;;;2.90;;
80199;SDS011;69520;44.900;-0.764;2023-09-12T14:05:09;9.73;;;3.13;;
80199;SDS011;69520;44.900;-0.764;2023-09-12T14:07:36;6.90;;;2.90;;
80199;SDS011;69520;44.900;-0.764;2023-09-12T14:10:05;7.00;;;2.67;;
80199;SDS011;69520;44.900;-0.764;2023-09-12T14:12:31;7.55;;;2.95;;
80199;SDS011;69520;44.900;-0.764;2023-09-12T14:14:57;10.00;;;3.65;;
80199;SDS011;69520;44.900;-0.764;2023-09-12T14:17:23;8.10;;;3.20;;
80199;SDS011;69520;44.900;-0.764;2023-09-12T14:19:49;8.45;;;3.25;;
80199;SDS011;69520;44.900;-0.764;2023-09-12T14:22:15;10.47;;;3.47;;
80199;SDS011;69520;44.900;-0.764;2023-09-12T14:24:41;10.02;;;3.67;;
80199;SDS011;69520;44.900;-0.764;2023-09-12T14:27:07;7.43;;;3.40;;
80199;SDS011;69520;44.900;-0.764;2023-09-12T14:29:33;7.40;;;3.30;;
80199;SDS011;69520;44.900;-0.764;2023-09-12T14:31:59;8.48;;;2.80;;
80199;SDS011;69520;44.900;-0.764;2023-09-12T14:34:28;8.90;;;3.30;;
80199;SDS011;69520;44.900;-0.764;2023-09-12T14:36:58;7.47;;;3.53;;
80199;SDS011;69520;44.900;-0.764;2023-09-12T14:39:24;7.93;;;3.70;;
80199;SDS011;69520;44.900;-0.764;2023-09-12T14:41:51;7.13;;;4.00;;
80199;SDS011;69520;44.900;-0.764;2023-09-12T14:44:19;7.72;;;3.83;;
80199;SDS011;69520;44.900;-0.764;2023-09-12T14:46:45;9.67;;;3.90;;